EmailTwitter


Surface observations / United Kingdom / EGHI (03865)

Regions: Quebec | Canada | USA | Europe | France | UK | Elsewhere
Station
Display
Info & Location for EGHI (03865) | Help decoding METAR

Weather Conditions observed on 2020/02/28 at 09:50 UTC at SOUTHAMPTON WX C, UK (EGHI)

Sky conditions: partly cloudy.

Obstruction(s) to Vision: light rain.

Temperature: 7.0 Celsius.

Dewpoint: 6.0 Celsius.

Relative Humidity: 93%

Windchill Factor: 4.

Windchill Factor (Gusts): 2.

Winds: South-southeast at 20 km/h or 11 knots.

Gust: 39 km/h or 21 knots.

Mean Sea level Pressure: 100.70 kilopascals.

Horizontal visibility: 2.49 statute miles or 3.98 kilometers.

Height of the Ceiling: 213 metres ( 700 feet ).

Coded METAR:

EGHI 280950Z 16011G21KT 110V200 4000 -RA BKN007 07/06 Q1007=